KCDW/CDW METAR and TAF weather

Enter ICAO airport designator
Station Type Date Time Source
KCDW METAR 2020/09/25 05:53 UTC NOAA

KCDW 250553Z AUTO 00000KT 10SM CLR 14/12 A3004 RMK AO2 SLP176 T01440122 10211 20139 51007


Station Type Date Time Source
KCDW Decoded METAR 2020/09/25 05:53 UTC NOAA

CALDWELL ESSEX COUNTY AIRPORT , NJ, United States (KCDW) 40-53N 074-17W 64M
Sep 25, 2020 - 01:53 AM EDT / 2020.09.25 0553 UTC
Wind: Calm:0
Visibility: 10 mile(s):0
Sky conditions: clear
Temperature: 57.9 F (14.4 C)
Dew Point: 54.0 F (12.2 C)
Relative Humidity: 86%
Pressure (altimeter): 30.04 in. Hg (1017 hPa)
Pressure tendency: 0.02 inches (0.7 hPa) higher than three hours ago
ob: KCDW 250553Z AUTO 00000KT 10SM CLR 14/12 A3004 RMK AO2 SLP176 T01440122 10211 20139 51007
cycle: 6

Station Type Date Time Source
KCDW TAF UTC NOAA

Error!

Example: see airport list